TKJ1NS LTFJ-LTAN
Flight info
| Callsign | TKJ1NS |
|---|---|
| Flight time | 0h 46m |
| Altitude | 33000 |
| Route | ROXUK1J/06L ROXUK UN617 ERVAG UT179 KFK UL620 OKLAM UB545 SEHIR |
| Aircraft | B738/M-SDE2E3FGHIRWXY/LB1 |
Departure
| Time | 2026-05-05 18:41 |
|---|---|
| Airport | Istanbul Sabiha Gökçen International Airport (LTFJ) |
Arrival
| Time | 2026-05-05 19:27 |
|---|---|
| Airport | Konya Airport (LTAN) |
| Time | Latitude | Longitude | Altitude | Speed | Heading |
|---|---|---|---|---|---|
| 2026-05-05 17:56 | 40.90573 | 29.31543 | 320 ft | 0 kts | 334° |
| 2026-05-05 18:24 | 40.90569 | 29.31546 | 320 ft | 4 kts | 332° |
| 2026-05-05 18:24 | 40.90547 | 29.31566 | 320 ft | 4 kts | 311° |
| 2026-05-05 18:25 | 40.90533 | 29.31595 | 320 ft | 4 kts | 288° |
| 2026-05-05 18:25 | 40.90528 | 29.31618 | 319 ft | 4 kts | 274° |
| 2026-05-05 18:25 | 40.90532 | 29.31662 | 319 ft | 2 kts | 244° |
| 2026-05-05 18:25 | 40.90533 | 29.31664 | 320 ft | 0 kts | 244° |
| 2026-05-05 18:31 | 40.90532 | 29.31660 | 320 ft | 2 kts | 244° |
| 2026-05-05 18:31 | 40.90522 | 29.31634 | 320 ft | 5 kts | 243° |
| 2026-05-05 18:31 | 40.90502 | 29.31581 | 320 ft | 8 kts | 243° |
| 2026-05-05 18:31 | 40.90475 | 29.31507 | 320 ft | 9 kts | 244° |
| 2026-05-05 18:32 | 40.90450 | 29.31444 | 319 ft | 7 kts | 230° |
| 2026-05-05 18:32 | 40.90404 | 29.31443 | 319 ft | 7 kts | 158° |
| 2026-05-05 18:32 | 40.90361 | 29.31470 | 320 ft | 7 kts | 154° |
| 2026-05-05 18:32 | 40.90317 | 29.31499 | 320 ft | 8 kts | 154° |
| 2026-05-05 18:33 | 40.90271 | 29.31482 | 318 ft | 8 kts | 239° |
| 2026-05-05 18:33 | 40.90247 | 29.31414 | 320 ft | 9 kts | 245° |
| 2026-05-05 18:33 | 40.90220 | 29.31340 | 319 ft | 10 kts | 244° |
| 2026-05-05 18:33 | 40.90185 | 29.31245 | 320 ft | 14 kts | 244° |
| 2026-05-05 18:34 | 40.90139 | 29.31122 | 318 ft | 15 kts | 244° |
| 2026-05-05 18:34 | 40.90095 | 29.30999 | 320 ft | 14 kts | 244° |
| 2026-05-05 18:34 | 40.90052 | 29.30882 | 319 ft | 14 kts | 244° |
| 2026-05-05 18:34 | 40.90011 | 29.30770 | 320 ft | 13 kts | 244° |
| 2026-05-05 18:35 | 40.89971 | 29.30662 | 320 ft | 13 kts | 244° |
| 2026-05-05 18:35 | 40.89933 | 29.30557 | 320 ft | 12 kts | 244° |
| 2026-05-05 18:35 | 40.89896 | 29.30457 | 319 ft | 12 kts | 244° |
| 2026-05-05 18:35 | 40.89858 | 29.30356 | 319 ft | 12 kts | 244° |
| 2026-05-05 18:36 | 40.89823 | 29.30261 | 318 ft | 12 kts | 244° |
| 2026-05-05 18:36 | 40.89789 | 29.30166 | 319 ft | 11 kts | 244° |
| 2026-05-05 18:36 | 40.89756 | 29.30074 | 320 ft | 11 kts | 244° |
| 2026-05-05 18:36 | 40.89723 | 29.29985 | 320 ft | 11 kts | 244° |
| 2026-05-05 18:37 | 40.89690 | 29.29899 | 318 ft | 10 kts | 243° |
| 2026-05-05 18:37 | 40.89656 | 29.29807 | 320 ft | 12 kts | 244° |
| 2026-05-05 18:37 | 40.89618 | 29.29705 | 319 ft | 12 kts | 244° |
| 2026-05-05 18:37 | 40.89581 | 29.29604 | 320 ft | 12 kts | 244° |
| 2026-05-05 18:38 | 40.89546 | 29.29506 | 319 ft | 12 kts | 244° |
| 2026-05-05 18:38 | 40.89511 | 29.29410 | 320 ft | 12 kts | 244° |
| 2026-05-05 18:38 | 40.89474 | 29.29310 | 320 ft | 12 kts | 243° |
| 2026-05-05 18:38 | 40.89417 | 29.29250 | 320 ft | 11 kts | 193° |
| 2026-05-05 18:39 | 40.89349 | 29.29279 | 319 ft | 10 kts | 153° |
| 2026-05-05 18:39 | 40.89289 | 29.29321 | 321 ft | 6 kts | 152° |
| 2026-05-05 18:39 | 40.89282 | 29.29370 | 321 ft | 6 kts | 63° |
| 2026-05-05 18:39 | 40.89297 | 29.29403 | 321 ft | 0 kts | 65° |
| 2026-05-05 18:40 | 40.89325 | 29.29482 | 321 ft | 35 kts | 64° |
| 2026-05-05 18:40 | 40.89535 | 29.30054 | 320 ft | 102 kts | 64° |
| 2026-05-05 18:40 | 40.89935 | 29.31137 | 318 ft | 158 kts | 64° |
| 2026-05-05 18:40 | 40.90462 | 29.32570 | 643 ft | 179 kts | 64° |
| 2026-05-05 18:41 | 40.90980 | 29.34044 | 1527 ft | 175 kts | 64° |
| 2026-05-05 18:41 | 40.91493 | 29.35504 | 2276 ft | 176 kts | 64° |
| 2026-05-05 18:41 | 40.92042 | 29.37016 | 2742 ft | 194 kts | 62° |
| 2026-05-05 18:41 | 40.92660 | 29.38735 | 2956 ft | 220 kts | 71° |
| 2026-05-05 18:42 | 40.92696 | 29.40838 | 3180 ft | 241 kts | 102° |
| 2026-05-05 18:42 | 40.92046 | 29.42961 | 3468 ft | 262 kts | 122° |
| 2026-05-05 18:42 | 40.90694 | 29.44623 | 4010 ft | 273 kts | 152° |
| 2026-05-05 18:42 | 40.88971 | 29.45720 | 4764 ft | 277 kts | 154° |
| 2026-05-05 18:43 | 40.87219 | 29.46816 | 5477 ft | 281 kts | 154° |
| 2026-05-05 18:43 | 40.85451 | 29.47931 | 6266 ft | 282 kts | 154° |
| 2026-05-05 18:43 | 40.83695 | 29.49039 | 6799 ft | 287 kts | 154° |
| 2026-05-05 18:43 | 40.81889 | 29.50181 | 7003 ft | 289 kts | 154° |
| 2026-05-05 18:44 | 40.80069 | 29.51334 | 6990 ft | 289 kts | 154° |
| 2026-05-05 18:44 | 40.78261 | 29.52480 | 7006 ft | 288 kts | 154° |
| 2026-05-05 18:44 | 40.76576 | 29.53876 | 6983 ft | 286 kts | 131° |
| 2026-05-05 18:44 | 40.75356 | 29.55931 | 7009 ft | 284 kts | 125° |
| 2026-05-05 18:45 | 40.74183 | 29.58031 | 7015 ft | 285 kts | 125° |
| 2026-05-05 18:45 | 40.72987 | 29.60153 | 7325 ft | 291 kts | 126° |
| 2026-05-05 18:45 | 40.71777 | 29.62278 | 8140 ft | 289 kts | 125° |
| 2026-05-05 18:45 | 40.70561 | 29.64404 | 8861 ft | 292 kts | 125° |
| 2026-05-05 18:46 | 40.69321 | 29.66554 | 9542 ft | 297 kts | 128° |
| 2026-05-05 18:46 | 40.67701 | 29.68257 | 10164 ft | 305 kts | 156° |
| 2026-05-05 18:46 | 40.65583 | 29.68853 | 10435 ft | 323 kts | 179° |
| 2026-05-05 18:46 | 40.63265 | 29.68832 | 10615 ft | 343 kts | 181° |
| 2026-05-05 18:47 | 40.60838 | 29.68775 | 11063 ft | 353 kts | 181° |
| 2026-05-05 18:47 | 40.58368 | 29.68734 | 11685 ft | 357 kts | 181° |
| 2026-05-05 18:47 | 40.55878 | 29.68714 | 12349 ft | 359 kts | 181° |
| 2026-05-05 18:47 | 40.53364 | 29.68704 | 13012 ft | 363 kts | 180° |
| 2026-05-05 18:48 | 40.50826 | 29.68697 | 13695 ft | 367 kts | 180° |
| 2026-05-05 18:48 | 40.48255 | 29.68691 | 14308 ft | 371 kts | 180° |
| 2026-05-05 18:48 | 40.45662 | 29.68684 | 14963 ft | 374 kts | 180° |
| 2026-05-05 18:48 | 40.43055 | 29.68677 | 15622 ft | 377 kts | 180° |
| 2026-05-05 18:49 | 40.40423 | 29.68670 | 16268 ft | 380 kts | 180° |
| 2026-05-05 18:49 | 40.37766 | 29.68663 | 16934 ft | 383 kts | 180° |
| 2026-05-05 18:49 | 40.35131 | 29.68657 | 17583 ft | 386 kts | 180° |
| 2026-05-05 18:49 | 40.32430 | 29.68650 | 18212 ft | 389 kts | 180° |
| 2026-05-05 18:50 | 40.29709 | 29.68644 | 18777 ft | 393 kts | 180° |
| 2026-05-05 18:50 | 40.26930 | 29.68637 | 19325 ft | 396 kts | 180° |
| 2026-05-05 18:50 | 40.24205 | 29.68630 | 19881 ft | 398 kts | 180° |
| 2026-05-05 18:50 | 40.21420 | 29.68624 | 20429 ft | 401 kts | 180° |
| 2026-05-05 18:51 | 40.18625 | 29.68617 | 20984 ft | 404 kts | 180° |
| 2026-05-05 18:51 | 40.15804 | 29.68702 | 21515 ft | 407 kts | 176° |
| 2026-05-05 18:51 | 40.12975 | 29.68996 | 22033 ft | 410 kts | 174° |
| 2026-05-05 18:51 | 40.10129 | 29.69367 | 22547 ft | 413 kts | 174° |
| 2026-05-05 18:52 | 40.07264 | 29.69748 | 23056 ft | 415 kts | 174° |
| 2026-05-05 18:52 | 40.04377 | 29.70115 | 23546 ft | 418 kts | 174° |
| 2026-05-05 18:52 | 40.01467 | 29.70466 | 23978 ft | 421 kts | 174° |
| 2026-05-05 18:52 | 39.98543 | 29.70805 | 24428 ft | 422 kts | 174° |
| 2026-05-05 18:53 | 39.95609 | 29.71143 | 24843 ft | 425 kts | 174° |
| 2026-05-05 18:53 | 39.92658 | 29.71481 | 25235 ft | 427 kts | 174° |
| 2026-05-05 18:53 | 39.89691 | 29.71843 | 25630 ft | 429 kts | 172° |
| 2026-05-05 18:53 | 39.86821 | 29.72899 | 25981 ft | 431 kts | 155° |
| 2026-05-05 18:54 | 39.84083 | 29.74494 | 26411 ft | 432 kts | 155° |
| 2026-05-05 18:54 | 39.81340 | 29.76114 | 26772 ft | 435 kts | 155° |
| 2026-05-05 18:54 | 39.78574 | 29.77733 | 27147 ft | 437 kts | 155° |
| 2026-05-05 18:54 | 39.75793 | 29.79332 | 27521 ft | 438 kts | 156° |
| 2026-05-05 18:55 | 39.72991 | 29.80923 | 27872 ft | 441 kts | 156° |
| 2026-05-05 18:55 | 39.70169 | 29.82516 | 28217 ft | 443 kts | 156° |
| 2026-05-05 18:55 | 39.67333 | 29.84110 | 28536 ft | 445 kts | 156° |
| 2026-05-05 18:55 | 39.64483 | 29.85708 | 28869 ft | 448 kts | 156° |
| 2026-05-05 18:56 | 39.61618 | 29.87314 | 29194 ft | 450 kts | 156° |
| 2026-05-05 18:56 | 39.58744 | 29.88925 | 29568 ft | 450 kts | 156° |
| 2026-05-05 18:56 | 39.55877 | 29.90529 | 30059 ft | 448 kts | 156° |
| 2026-05-05 18:56 | 39.53026 | 29.92126 | 30508 ft | 445 kts | 156° |
| 2026-05-05 18:57 | 39.50176 | 29.93723 | 30773 ft | 447 kts | 156° |
| 2026-05-05 18:57 | 39.47314 | 29.95336 | 30988 ft | 450 kts | 156° |
| 2026-05-05 18:57 | 39.44441 | 29.96963 | 31275 ft | 451 kts | 156° |
| 2026-05-05 18:57 | 39.41570 | 29.98589 | 31602 ft | 451 kts | 156° |
| 2026-05-05 18:58 | 39.38693 | 30.00217 | 31901 ft | 451 kts | 156° |
| 2026-05-05 18:58 | 39.35817 | 30.01841 | 32165 ft | 452 kts | 156° |
| 2026-05-05 18:58 | 39.32922 | 30.03474 | 32415 ft | 454 kts | 157° |
| 2026-05-05 18:58 | 39.30018 | 30.05112 | 32593 ft | 457 kts | 157° |
| 2026-05-05 18:59 | 39.27100 | 30.06750 | 32852 ft | 458 kts | 157° |
| 2026-05-05 18:59 | 39.24177 | 30.08392 | 33106 ft | 459 kts | 157° |
| 2026-05-05 18:59 | 39.18321 | 30.11681 | 33078 ft | 463 kts | 157° |
| 2026-05-05 19:00 | 39.12477 | 30.14957 | 33073 ft | 454 kts | 157° |
| 2026-05-05 19:00 | 39.06833 | 30.18607 | 33076 ft | 457 kts | 145° |
| 2026-05-05 19:01 | 39.02154 | 30.24132 | 33086 ft | 459 kts | 131° |
| 2026-05-05 19:01 | 38.97871 | 30.30276 | 33075 ft | 462 kts | 131° |
| 2026-05-05 19:02 | 38.93543 | 30.36413 | 33073 ft | 465 kts | 132° |
| 2026-05-05 19:02 | 38.89159 | 30.42532 | 33078 ft | 465 kts | 132° |
| 2026-05-05 19:03 | 38.84772 | 30.48628 | 33067 ft | 464 kts | 132° |
| 2026-05-05 19:03 | 38.80404 | 30.54691 | 33058 ft | 461 kts | 132° |
| 2026-05-05 19:04 | 38.76164 | 30.60831 | 33041 ft | 459 kts | 130° |
| 2026-05-05 19:04 | 38.72012 | 30.67012 | 33058 ft | 457 kts | 130° |
| 2026-05-05 19:05 | 38.67882 | 30.73122 | 33040 ft | 445 kts | 130° |
| 2026-05-05 19:05 | 38.63871 | 30.79011 | 33049 ft | 436 kts | 130° |
| 2026-05-05 19:06 | 38.59863 | 30.84877 | 33079 ft | 443 kts | 131° |
| 2026-05-05 19:06 | 38.55749 | 30.90891 | 33077 ft | 456 kts | 131° |
| 2026-05-05 19:07 | 38.52244 | 30.96007 | 33085 ft | 464 kts | 131° |
| 2026-05-05 19:07 | 38.47289 | 31.03219 | 33049 ft | 463 kts | 131° |
| 2026-05-05 19:08 | 38.45182 | 31.06253 | 33025 ft | 450 kts | 131° |
| 2026-05-05 19:08 | 38.43127 | 31.09197 | 32764 ft | 441 kts | 131° |
| 2026-05-05 19:08 | 38.41104 | 31.12091 | 32502 ft | 434 kts | 131° |
| 2026-05-05 19:08 | 38.39102 | 31.14952 | 32116 ft | 430 kts | 131° |
| 2026-05-05 19:09 | 38.37123 | 31.17781 | 31769 ft | 426 kts | 131° |
| 2026-05-05 19:09 | 38.35155 | 31.20594 | 31390 ft | 423 kts | 131° |
| 2026-05-05 19:09 | 38.33210 | 31.23373 | 31130 ft | 416 kts | 131° |
| 2026-05-05 19:09 | 38.31315 | 31.26079 | 31155 ft | 403 kts | 131° |
| 2026-05-05 19:10 | 38.27590 | 31.31390 | 31162 ft | 408 kts | 132° |
| 2026-05-05 19:10 | 38.23755 | 31.36902 | 31170 ft | 421 kts | 131° |
| 2026-05-05 19:11 | 38.19941 | 31.42399 | 30854 ft | 408 kts | 131° |
| 2026-05-05 19:11 | 38.18073 | 31.45091 | 30461 ft | 404 kts | 131° |
| 2026-05-05 19:11 | 38.16223 | 31.47755 | 29921 ft | 401 kts | 131° |
| 2026-05-05 19:12 | 38.14385 | 31.50399 | 29301 ft | 398 kts | 131° |
| 2026-05-05 19:12 | 38.13175 | 31.52140 | 28899 ft | 396 kts | 131° |
| 2026-05-05 19:12 | 38.11355 | 31.54755 | 28272 ft | 394 kts | 131° |
| 2026-05-05 19:12 | 38.09539 | 31.57363 | 27677 ft | 393 kts | 131° |
| 2026-05-05 19:13 | 38.07739 | 31.59948 | 27128 ft | 389 kts | 132° |
| 2026-05-05 19:13 | 38.05951 | 31.62517 | 26557 ft | 387 kts | 132° |
| 2026-05-05 19:13 | 38.04173 | 31.65063 | 26044 ft | 384 kts | 132° |
| 2026-05-05 19:13 | 38.02405 | 31.67592 | 25549 ft | 381 kts | 132° |
| 2026-05-05 19:14 | 38.00654 | 31.70095 | 25065 ft | 378 kts | 132° |
| 2026-05-05 19:14 | 37.98917 | 31.72577 | 24586 ft | 375 kts | 132° |
| 2026-05-05 19:14 | 37.97190 | 31.75043 | 24106 ft | 372 kts | 132° |
| 2026-05-05 19:14 | 37.95477 | 31.77487 | 23618 ft | 370 kts | 133° |
| 2026-05-05 19:15 | 37.93772 | 31.79918 | 23078 ft | 368 kts | 133° |
| 2026-05-05 19:15 | 37.92072 | 31.82341 | 22439 ft | 368 kts | 132° |
| 2026-05-05 19:15 | 37.90373 | 31.84759 | 21903 ft | 366 kts | 132° |
| 2026-05-05 19:15 | 37.88692 | 31.87152 | 21454 ft | 362 kts | 133° |
| 2026-05-05 19:16 | 37.87029 | 31.89517 | 20991 ft | 358 kts | 133° |
| 2026-05-05 19:16 | 37.85380 | 31.91860 | 20520 ft | 355 kts | 133° |
| 2026-05-05 19:16 | 37.83740 | 31.94188 | 20055 ft | 353 kts | 133° |
| 2026-05-05 19:16 | 37.82113 | 31.96496 | 19591 ft | 350 kts | 133° |
| 2026-05-05 19:17 | 37.80497 | 31.98787 | 19150 ft | 348 kts | 133° |
| 2026-05-05 19:17 | 37.78894 | 32.01059 | 18724 ft | 345 kts | 133° |
| 2026-05-05 19:17 | 37.77301 | 32.03314 | 18269 ft | 343 kts | 133° |
| 2026-05-05 19:17 | 37.75720 | 32.05552 | 17784 ft | 340 kts | 133° |
| 2026-05-05 19:18 | 37.74152 | 32.07768 | 17307 ft | 337 kts | 132° |
| 2026-05-05 19:18 | 37.72589 | 32.09974 | 16753 ft | 337 kts | 133° |
| 2026-05-05 19:18 | 37.71029 | 32.12178 | 16293 ft | 334 kts | 133° |
| 2026-05-05 19:18 | 37.69490 | 32.14357 | 15866 ft | 331 kts | 133° |
| 2026-05-05 19:19 | 37.67963 | 32.16510 | 15429 ft | 328 kts | 132° |
| 2026-05-05 19:19 | 37.66467 | 32.18672 | 14968 ft | 325 kts | 126° |
| 2026-05-05 19:19 | 37.65531 | 32.21230 | 14470 ft | 322 kts | 101° |
| 2026-05-05 19:19 | 37.65418 | 32.24015 | 14012 ft | 316 kts | 83° |
| 2026-05-05 19:20 | 37.65638 | 32.26741 | 13690 ft | 308 kts | 82° |
| 2026-05-05 19:20 | 37.65875 | 32.29390 | 13324 ft | 301 kts | 82° |
| 2026-05-05 19:20 | 37.66105 | 32.32011 | 12626 ft | 305 kts | 82° |
| 2026-05-05 19:20 | 37.66335 | 32.34748 | 11514 ft | 322 kts | 82° |
| 2026-05-05 19:21 | 37.66561 | 32.37595 | 10710 ft | 327 kts | 83° |
| 2026-05-05 19:21 | 37.66783 | 32.40406 | 10109 ft | 325 kts | 83° |
| 2026-05-05 19:21 | 37.67194 | 32.43167 | 9532 ft | 317 kts | 64° |
| 2026-05-05 19:21 | 37.68460 | 32.45353 | 9099 ft | 302 kts | 36° |
| 2026-05-05 19:22 | 37.70319 | 32.46359 | 8740 ft | 288 kts | 9° |
| 2026-05-05 19:22 | 37.72250 | 32.46725 | 8339 ft | 281 kts | 8° |
| 2026-05-05 19:22 | 37.74161 | 32.47116 | 7964 ft | 275 kts | 9° |
| 2026-05-05 19:22 | 37.76007 | 32.47624 | 7601 ft | 269 kts | 14° |
| 2026-05-05 19:23 | 37.77787 | 32.48267 | 7244 ft | 263 kts | 15° |
| 2026-05-05 19:23 | 37.79510 | 32.48934 | 6900 ft | 252 kts | 16° |
| 2026-05-05 19:23 | 37.81133 | 32.49560 | 6569 ft | 237 kts | 15° |
| 2026-05-05 19:23 | 37.82667 | 32.50144 | 6287 ft | 224 kts | 15° |
| 2026-05-05 19:24 | 37.84106 | 32.50693 | 6002 ft | 208 kts | 15° |
| 2026-05-05 19:24 | 37.85450 | 32.51203 | 5723 ft | 196 kts | 15° |
| 2026-05-05 19:24 | 37.86722 | 32.51688 | 5467 ft | 186 kts | 15° |
| 2026-05-05 19:24 | 37.87924 | 32.52146 | 5231 ft | 175 kts | 15° |
| 2026-05-05 19:25 | 37.89051 | 32.52574 | 5023 ft | 165 kts | 15° |
| 2026-05-05 19:25 | 37.90161 | 32.52998 | 4750 ft | 165 kts | 15° |
| 2026-05-05 19:25 | 37.91259 | 32.53416 | 4495 ft | 164 kts | 14° |
| 2026-05-05 19:25 | 37.92356 | 32.53833 | 4262 ft | 165 kts | 14° |
| 2026-05-05 19:26 | 37.93448 | 32.54249 | 4040 ft | 164 kts | 14° |
| 2026-05-05 19:26 | 37.94536 | 32.54672 | 3826 ft | 164 kts | 15° |
| 2026-05-05 19:26 | 37.95622 | 32.55088 | 3627 ft | 161 kts | 14° |
| 2026-05-05 19:26 | 37.96686 | 32.55485 | 3438 ft | 157 kts | 15° |
| 2026-05-05 19:27 | 37.97636 | 32.55845 | 3392 ft | 123 kts | 17° |
| 2026-05-05 19:27 | 37.98310 | 32.56104 | 3390 ft | 80 kts | 17° |
| 2026-05-05 19:27 | 37.98660 | 32.56232 | 3388 ft | 16 kts | 17° |
| 2026-05-05 19:27 | 37.98685 | 32.56249 | 3388 ft | 5 kts | 44° |
| 2026-05-05 19:28 | 37.98704 | 32.56285 | 3388 ft | 5 kts | 75° |
| 2026-05-05 19:28 | 37.98699 | 32.56328 | 3388 ft | 5 kts | 109° |
| 2026-05-05 19:28 | 37.98687 | 32.56369 | 3389 ft | 5 kts | 110° |
| 2026-05-05 19:28 | 37.98676 | 32.56410 | 3389 ft | 5 kts | 106° |
| 2026-05-05 19:29 | 37.98667 | 32.56451 | 3390 ft | 5 kts | 107° |
| 2026-05-05 19:29 | 37.98657 | 32.56490 | 3390 ft | 5 kts | 108° |
| 2026-05-05 19:29 | 37.98647 | 32.56529 | 3391 ft | 5 kts | 107° |
| 2026-05-05 19:29 | 37.98637 | 32.56574 | 3391 ft | 6 kts | 105° |
| 2026-05-05 19:30 | 37.98624 | 32.56631 | 3391 ft | 8 kts | 107° |
| 2026-05-05 19:30 | 37.98604 | 32.56713 | 3391 ft | 11 kts | 106° |
| 2026-05-05 19:30 | 37.98583 | 32.56803 | 3390 ft | 11 kts | 108° |
| 2026-05-05 19:30 | 37.98561 | 32.56890 | 3390 ft | 10 kts | 107° |
| 2026-05-05 19:31 | 37.98541 | 32.56975 | 3390 ft | 10 kts | 107° |
| 2026-05-05 19:31 | 37.98521 | 32.57057 | 3390 ft | 10 kts | 107° |
| 2026-05-05 19:31 | 37.98502 | 32.57138 | 3390 ft | 9 kts | 107° |
| 2026-05-05 19:31 | 37.98484 | 32.57216 | 3390 ft | 9 kts | 107° |
| 2026-05-05 19:32 | 37.98465 | 32.57292 | 3390 ft | 9 kts | 107° |
| 2026-05-05 19:32 | 37.98447 | 32.57366 | 3390 ft | 9 kts | 107° |
| 2026-05-05 19:32 | 37.98437 | 32.57424 | 3390 ft | 4 kts | 95° |
| 2026-05-05 19:32 | 37.98447 | 32.57453 | 3390 ft | 4 kts | 43° |
| 2026-05-05 19:33 | 37.98470 | 32.57469 | 3390 ft | 4 kts | 32° |
| 2026-05-05 19:33 | 37.98476 | 32.57501 | 3390 ft | 4 kts | 96° |
| 2026-05-05 19:33 | 37.98472 | 32.57525 | 3390 ft | 1 kts | 103° |
| 2026-05-05 19:33 | 37.98471 | 32.57529 | 3390 ft | 0 kts | 103° |